<?xml version="1.0" encoding="utf-8"?>
<gpx xmlns:xsi="http://www.w3.org/2001/XMLSchema-instance" xmlns:xsd="http://www.w3.org/2001/XMLSchema" version="1.1" creator="Shapelink.com" xmlns="http://www.topografix.com/GPX/1/1" xmlns:gpxtpx="http://www.garmin.com/xmlschemas/TrackPointExtension/v1">
  <metadata>
    <name>Övrigt 2.40 km, 2020-07-21</name>
    <desc></desc>
    <author><name>Marian Moron</name></author> 
    <time>2020-07-21T21:19:45Z</time>
  </metadata>
  <trk>
    <name>Övrigt 2.40 km, 2020-07-21</name>
    <trkseg>
      <trkpt lat="51.229717579011" lon="4.457943857478">
        <ele>0</ele>
        <time>2020-07-21T21:19:45Z</time>
      </trkpt>
      <trkpt lat="51.229791758826" lon="4.45791854414">
        <ele>0</ele>
        <time>2020-07-21T21:19:50Z</time>
      </trkpt>
      <trkpt lat="51.229802906753" lon="4.457938241605">
        <ele>0</ele>
        <time>2020-07-21T21:19:52Z</time>
      </trkpt>
      <trkpt lat="51.229969287468" lon="4.45864441668">
        <ele>2</ele>
        <time>2020-07-21T21:20:24Z</time>
      </trkpt>
      <trkpt lat="51.229988984933" lon="4.458723374178">
        <ele>3.2</ele>
        <time>2020-07-21T21:20:28Z</time>
      </trkpt>
      <trkpt lat="51.230038270505" lon="4.458863687184">
        <ele>4.2</ele>
        <time>2020-07-21T21:20:39Z</time>
      </trkpt>
      <trkpt lat="51.230198867709" lon="4.458993438996">
        <ele>5.6</ele>
        <time>2020-07-21T21:20:58Z</time>
      </trkpt>
      <trkpt lat="51.230230299834" lon="4.458980111775">
        <ele>5.6</ele>
        <time>2020-07-21T21:21:02Z</time>
      </trkpt>
      <trkpt lat="51.230320908173" lon="4.458935100972">
        <ele>6</ele>
        <time>2020-07-21T21:21:18Z</time>
      </trkpt>
      <trkpt lat="51.230378910921" lon="4.459006095665">
        <ele>3.6</ele>
        <time>2020-07-21T21:21:40Z</time>
      </trkpt>
      <trkpt lat="51.230495754607" lon="4.459670864154">
        <ele>5</ele>
        <time>2020-07-21T21:23:22Z</time>
      </trkpt>
      <trkpt lat="51.230571862259" lon="4.460061293056">
        <ele>5</ele>
        <time>2020-07-21T21:24:18Z</time>
      </trkpt>
      <trkpt lat="51.230592314095" lon="4.460339404498">
        <ele>4</ele>
        <time>2020-07-21T21:24:49Z</time>
      </trkpt>
      <trkpt lat="51.230656267992" lon="4.460516765502">
        <ele>2.6</ele>
        <time>2020-07-21T21:25:15Z</time>
      </trkpt>
      <trkpt lat="51.230655094526" lon="4.460682140389">
        <ele>2</ele>
        <time>2020-07-21T21:25:42Z</time>
      </trkpt>
      <trkpt lat="51.230532886424" lon="4.460737796205">
        <ele>0</ele>
        <time>2020-07-21T21:26:15Z</time>
      </trkpt>
      <trkpt lat="51.230094429235" lon="4.460923706747">
        <ele>0</ele>
        <time>2020-07-21T21:27:06Z</time>
      </trkpt>
      <trkpt lat="51.230023266904" lon="4.460951618474">
        <ele>0</ele>
        <time>2020-07-21T21:27:12Z</time>
      </trkpt>
      <trkpt lat="51.229964174509" lon="4.46094189547">
        <ele>0</ele>
        <time>2020-07-21T21:27:40Z</time>
      </trkpt>
      <trkpt lat="51.229695366976" lon="4.461113892058">
        <ele>1.4</ele>
        <time>2020-07-21T21:28:20Z</time>
      </trkpt>
      <trkpt lat="51.229754962285" lon="4.461132080781">
        <ele>1.2</ele>
        <time>2020-07-21T21:28:26Z</time>
      </trkpt>
      <trkpt lat="51.229792010283" lon="4.461260575308">
        <ele>0</ele>
        <time>2020-07-21T21:28:34Z</time>
      </trkpt>
      <trkpt lat="51.2297872326" lon="4.461319583884">
        <ele>0</ele>
        <time>2020-07-21T21:28:38Z</time>
      </trkpt>
      <trkpt lat="51.229864429899" lon="4.461566598477">
        <ele>0</ele>
        <time>2020-07-21T21:29:12Z</time>
      </trkpt>
      <trkpt lat="51.229918493154" lon="4.461772793217">
        <ele>1.4</ele>
        <time>2020-07-21T21:29:25Z</time>
      </trkpt>
      <trkpt lat="51.229931652737" lon="4.46184630248">
        <ele>2.4</ele>
        <time>2020-07-21T21:29:30Z</time>
      </trkpt>
      <trkpt lat="51.230042126179" lon="4.4621631383">
        <ele>3.2</ele>
        <time>2020-07-21T21:29:57Z</time>
      </trkpt>
      <trkpt lat="51.230216721156" lon="4.462827152418">
        <ele>1.2</ele>
        <time>2020-07-21T21:30:43Z</time>
      </trkpt>
      <trkpt lat="51.230261983416" lon="4.463026390181">
        <ele>0</ele>
        <time>2020-07-21T21:30:59Z</time>
      </trkpt>
      <trkpt lat="51.230302467993" lon="4.46332067869">
        <ele>1.6</ele>
        <time>2020-07-21T21:31:21Z</time>
      </trkpt>
      <trkpt lat="51.23032870334" lon="4.463452609796">
        <ele>1.8</ele>
        <time>2020-07-21T21:31:30Z</time>
      </trkpt>
      <trkpt lat="51.23035049628" lon="4.463533495131">
        <ele>0.8</ele>
        <time>2020-07-21T21:31:35Z</time>
      </trkpt>
      <trkpt lat="51.230333900118" lon="4.463897940143">
        <ele>0.2</ele>
        <time>2020-07-21T21:31:58Z</time>
      </trkpt>
      <trkpt lat="51.230240190476" lon="4.463985698636">
        <ele>1</ele>
        <time>2020-07-21T21:32:13Z</time>
      </trkpt>
      <trkpt lat="51.229874152903" lon="4.464336062056">
        <ele>0</ele>
        <time>2020-07-21T21:33:52Z</time>
      </trkpt>
      <trkpt lat="51.229543403129" lon="4.464348551087">
        <ele>0.2</ele>
        <time>2020-07-21T21:35:00Z</time>
      </trkpt>
      <trkpt lat="51.229525298225" lon="4.464361794489">
        <ele>0</ele>
        <time>2020-07-21T21:35:02Z</time>
      </trkpt>
      <trkpt lat="51.229241487091" lon="4.464393142795">
        <ele>2.4</ele>
        <time>2020-07-21T21:35:36Z</time>
      </trkpt>
      <trkpt lat="51.228986677331" lon="4.46441032569">
        <ele>1.8</ele>
        <time>2020-07-21T21:36:09Z</time>
      </trkpt>
      <trkpt lat="51.228827085955" lon="4.464439829978">
        <ele>0.4</ele>
        <time>2020-07-21T21:36:37Z</time>
      </trkpt>
      <trkpt lat="51.228748547552" lon="4.464508561558">
        <ele>2</ele>
        <time>2020-07-21T21:36:59Z</time>
      </trkpt>
      <trkpt lat="51.228743518412" lon="4.464552231257">
        <ele>2.2</ele>
        <time>2020-07-21T21:37:02Z</time>
      </trkpt>
      <trkpt lat="51.228742596403" lon="4.464651472953">
        <ele>3.2</ele>
        <time>2020-07-21T21:37:27Z</time>
      </trkpt>
      <trkpt lat="51.228751984131" lon="4.464978115596">
        <ele>12.4</ele>
        <time>2020-07-21T21:37:51Z</time>
      </trkpt>
      <trkpt lat="51.228728347173" lon="4.465242480722">
        <ele>7.8</ele>
        <time>2020-07-21T21:38:18Z</time>
      </trkpt>
      <trkpt lat="51.228681827628" lon="4.465580522749">
        <ele>0.6</ele>
        <time>2020-07-21T21:38:44Z</time>
      </trkpt>
      <trkpt lat="51.228590884013" lon="4.46573634227">
        <ele>0</ele>
        <time>2020-07-21T21:39:00Z</time>
      </trkpt>
      <trkpt lat="51.228429951533" lon="4.465958294982">
        <ele>0</ele>
        <time>2020-07-21T21:39:25Z</time>
      </trkpt>
      <trkpt lat="51.228253931633" lon="4.466185528291">
        <ele>0</ele>
        <time>2020-07-21T21:40:00Z</time>
      </trkpt>
      <trkpt lat="51.227918320357" lon="4.466638821443">
        <ele>0</ele>
        <time>2020-07-21T21:40:45Z</time>
      </trkpt>
      <trkpt lat="51.227934162148" lon="4.466757844423">
        <ele>0</ele>
        <time>2020-07-21T21:40:55Z</time>
      </trkpt>
      <trkpt lat="51.228222499508" lon="4.467003937007">
        <ele>0.6</ele>
        <time>2020-07-21T21:41:48Z</time>
      </trkpt>
      <trkpt lat="51.228593901497" lon="4.467423954016">
        <ele>0</ele>
        <time>2020-07-21T21:42:29Z</time>
      </trkpt>
      <trkpt lat="51.228904115616" lon="4.467499558754">
        <ele>0</ele>
        <time>2020-07-21T21:43:08Z</time>
      </trkpt>
      <trkpt lat="51.229085835208" lon="4.467539037503">
        <ele>2.2</ele>
        <time>2020-07-21T21:43:24Z</time>
      </trkpt>
      <trkpt lat="51.229534853591" lon="4.467631406041">
        <ele>1</ele>
        <time>2020-07-21T21:44:08Z</time>
      </trkpt>
      <trkpt lat="51.229712801328" lon="4.467604248685">
        <ele>0</ele>
        <time>2020-07-21T21:44:29Z</time>
      </trkpt>
      <trkpt lat="51.230152851078" lon="4.467433509382">
        <ele>0</ele>
        <time>2020-07-21T21:45:14Z</time>
      </trkpt>
      <trkpt lat="51.230266006728" lon="4.467384307629">
        <ele>0</ele>
        <time>2020-07-21T21:45:29Z</time>
      </trkpt>
      <trkpt lat="51.230329373892" lon="4.467328567994">
        <ele>0</ele>
        <time>2020-07-21T21:45:42Z</time>
      </trkpt>
      <trkpt lat="51.230758275715" lon="4.467230415945">
        <ele>0.4</ele>
        <time>2020-07-21T21:46:22Z</time>
      </trkpt>
      <trkpt lat="51.230820553232" lon="4.467210802299">
        <ele>0.8</ele>
        <time>2020-07-21T21:46:30Z</time>
      </trkpt>
      <trkpt lat="51.230914011417" lon="4.467173502844">
        <ele>1</ele>
        <time>2020-07-21T21:46:43Z</time>
      </trkpt>
      <trkpt lat="51.231139400708" lon="4.467056240063">
        <ele>0.8</ele>
        <time>2020-07-21T21:47:28Z</time>
      </trkpt>
      <trkpt lat="51.23129513641" lon="4.466770836368">
        <ele>1</ele>
        <time>2020-07-21T21:48:02Z</time>
      </trkpt>
      <trkpt lat="51.231537624777" lon="4.466171027604">
        <ele>11.2</ele>
        <time>2020-07-21T21:49:04Z</time>
      </trkpt>
      <trkpt lat="51.231543324469" lon="4.466155604908">
        <ele>11</ele>
        <time>2020-07-21T21:49:05Z</time>
      </trkpt>
      <trkpt lat="51.231783465904" lon="4.465539786715">
        <ele>1.6</ele>
        <time>2020-07-21T21:49:48Z</time>
      </trkpt>
      <trkpt lat="51.231829650173" lon="4.46548739984">
        <ele>0</ele>
        <time>2020-07-21T21:50:02Z</time>
      </trkpt>
      <trkpt lat="51.231961916555" lon="4.465252036088">
        <ele>0.8</ele>
        <time>2020-07-21T21:50:35Z</time>
      </trkpt>
      <trkpt lat="51.232026792461" lon="4.465106777761">
        <ele>2.6</ele>
        <time>2020-07-21T21:50:51Z</time>
      </trkpt>
      <trkpt lat="51.232079011698" lon="4.46505070285">
        <ele>3.6</ele>
        <time>2020-07-21T21:50:57Z</time>
      </trkpt>
      <trkpt lat="51.232174313901" lon="4.464783152602">
        <ele>3</ele>
        <time>2020-07-21T21:51:13Z</time>
      </trkpt>
      <trkpt lat="51.232195436289" lon="4.464760270015">
        <ele>3.2</ele>
        <time>2020-07-21T21:51:16Z</time>
      </trkpt>
      <trkpt lat="51.232307586111" lon="4.4647279997">
        <ele>3.4</ele>
        <time>2020-07-21T21:51:24Z</time>
      </trkpt>
      <trkpt lat="51.23248117526" lon="4.464305887216">
        <ele>5.8</ele>
        <time>2020-07-21T21:51:57Z</time>
      </trkpt>
      <trkpt lat="51.23245519137" lon="4.464267079019">
        <ele>6.6</ele>
        <time>2020-07-21T21:52:00Z</time>
      </trkpt>
      <trkpt lat="51.232444043443" lon="4.464249141753">
        <ele>6.4</ele>
        <time>2020-07-21T21:52:02Z</time>
      </trkpt>
      <trkpt lat="51.232461813071" lon="4.464126263099">
        <ele>6</ele>
        <time>2020-07-21T21:52:10Z</time>
      </trkpt>
      <trkpt lat="51.23246608784" lon="4.464094076603">
        <ele>5.2</ele>
        <time>2020-07-21T21:52:12Z</time>
      </trkpt>
      <trkpt lat="51.232515457231" lon="4.463919313988">
        <ele>6.2</ele>
        <time>2020-07-21T21:52:29Z</time>
      </trkpt>
      <trkpt lat="51.232533478316" lon="4.463842284327">
        <ele>11.4</ele>
        <time>2020-07-21T21:52:59Z</time>
      </trkpt>
      <trkpt lat="51.232480672346" lon="4.463714376533">
        <ele>10</ele>
        <time>2020-07-21T21:53:08Z</time>
      </trkpt>
      <trkpt lat="51.232448318212" lon="4.463691577765">
        <ele>9.2</ele>
        <time>2020-07-21T21:53:12Z</time>
      </trkpt>
      <trkpt lat="51.232405319065" lon="4.463615218656">
        <ele>8.2</ele>
        <time>2020-07-21T21:53:17Z</time>
      </trkpt>
      <trkpt lat="51.23235628495" lon="4.463575320812">
        <ele>7.6</ele>
        <time>2020-07-21T21:53:21Z</time>
      </trkpt>
      <trkpt lat="51.232324098454" lon="4.463377507972">
        <ele>3.8</ele>
        <time>2020-07-21T21:53:35Z</time>
      </trkpt>
      <trkpt lat="51.232125615062" lon="4.462826481866">
        <ele>0</ele>
        <time>2020-07-21T21:54:36Z</time>
      </trkpt>
      <trkpt lat="51.232087393598" lon="4.462734029509">
        <ele>0</ele>
        <time>2020-07-21T21:54:43Z</time>
      </trkpt>
      <trkpt lat="51.232117987533" lon="4.462552393736">
        <ele>0</ele>
        <time>2020-07-21T21:54:54Z</time>
      </trkpt>
      <trkpt lat="51.232121843207" lon="4.462341253675">
        <ele>0</ele>
        <time>2020-07-21T21:55:22Z</time>
      </trkpt>
      <trkpt lat="51.232119328637" lon="4.462062471681">
        <ele>3.8</ele>
        <time>2020-07-21T21:55:57Z</time>
      </trkpt>
      <trkpt lat="51.232073731101" lon="4.461578500775">
        <ele>1.6</ele>
        <time>2020-07-21T21:56:31Z</time>
      </trkpt>
      <trkpt lat="51.23205453655" lon="4.461521420036">
        <ele>2.2</ele>
        <time>2020-07-21T21:56:35Z</time>
      </trkpt>
      <trkpt lat="51.231995947069" lon="4.461397200278">
        <ele>0.8</ele>
        <time>2020-07-21T21:56:50Z</time>
      </trkpt>
      <trkpt lat="51.231929394783" lon="4.461129063297">
        <ele>0</ele>
        <time>2020-07-21T21:57:08Z</time>
      </trkpt>
      <trkpt lat="51.231881282677" lon="4.460824297413">
        <ele>0.8</ele>
        <time>2020-07-21T21:57:50Z</time>
      </trkpt>
      <trkpt lat="51.231845994878" lon="4.460423474955">
        <ele>0</ele>
        <time>2020-07-21T21:58:17Z</time>
      </trkpt>
      <trkpt lat="51.231837277702" lon="4.460393551572">
        <ele>0</ele>
        <time>2020-07-21T21:58:19Z</time>
      </trkpt>
      <trkpt lat="51.231734850884" lon="4.459825091114">
        <ele>0</ele>
        <time>2020-07-21T21:59:00Z</time>
      </trkpt>
      <trkpt lat="51.231686822597" lon="4.45960414423">
        <ele>0</ele>
        <time>2020-07-21T21:59:10Z</time>
      </trkpt>
      <trkpt lat="51.231661760716" lon="4.459425777398">
        <ele>0</ele>
        <time>2020-07-21T21:59:34Z</time>
      </trkpt>
      <trkpt lat="51.231596717172" lon="4.459230060033">
        <ele>0</ele>
        <time>2020-07-21T21:59:56Z</time>
      </trkpt>
      <trkpt lat="51.231494877087" lon="4.458523884958">
        <ele>0</ele>
        <time>2020-07-21T22:00:40Z</time>
      </trkpt>
      <trkpt lat="51.231284659035" lon="4.458601501352">
        <ele>0</ele>
        <time>2020-07-21T22:01:14Z</time>
      </trkpt>
      <trkpt lat="51.231220202224" lon="4.458619606256">
        <ele>6.4</ele>
        <time>2020-07-21T22:01:38Z</time>
      </trkpt>
      <trkpt lat="51.231137137595" lon="4.458634442219">
        <ele>9.6</ele>
        <time>2020-07-21T22:01:48Z</time>
      </trkpt>
      <trkpt lat="51.231019455719" lon="4.458719434685">
        <ele>5.4</ele>
        <time>2020-07-21T22:02:12Z</time>
      </trkpt>
      <trkpt lat="51.230587871688" lon="4.458901154277">
        <ele>0</ele>
        <time>2020-07-21T22:02:52Z</time>
      </trkpt>
      <trkpt lat="51.230302887088" lon="4.459003664914">
        <ele>0.2</ele>
        <time>2020-07-21T22:03:21Z</time>
      </trkpt>
      <trkpt lat="51.22992301938" lon="4.458767211515">
        <ele>0</ele>
        <time>2020-07-21T22:03:58Z</time>
      </trkpt>
      <trkpt lat="51.229882702441" lon="4.458049637056">
        <ele>4.6</ele>
        <time>2020-07-21T22:04:37Z</time>
      </trkpt>
      <trkpt lat="51.229899801517" lon="4.457985934616">
        <ele>5.2</ele>
        <time>2020-07-21T22:04:43Z</time>
      </trkpt>
      <trkpt lat="51.229855461266" lon="4.457956178871">
        <ele>2.6</ele>
        <time>2020-07-21T22:04:48Z</time>
      </trkpt>
    </trkseg>
  </trk>
</gpx>